sensor_id;sensor_type;location;lat;lon;timestamp;P1;durP1;ratioP1;P2;durP2;ratioP2
19907;SDS011;10116;53.112;7.356;2022-08-21T00:02:02;1.33;;;1.20;;
19907;SDS011;10116;53.112;7.356;2022-08-21T00:04:28;2.13;;;1.33;;
19907;SDS011;10116;53.112;7.356;2022-08-21T00:06:55;1.93;;;1.43;;
19907;SDS011;10116;53.112;7.356;2022-08-21T00:09:21;1.53;;;1.00;;
19907;SDS011;10116;53.112;7.356;2022-08-21T00:11:47;1.13;;;1.13;;
19907;SDS011;10116;53.112;7.356;2022-08-21T00:14:13;4.40;;;1.90;;
19907;SDS011;10116;53.112;7.356;2022-08-21T00:16:39;2.63;;;1.37;;
19907;SDS011;10116;53.112;7.356;2022-08-21T00:19:05;5.50;;;0.97;;
19907;SDS011;10116;53.112;7.356;2022-08-21T00:21:32;1.30;;;1.17;;
19907;SDS011;10116;53.112;7.356;2022-08-21T00:23:59;2.23;;;1.30;;
19907;SDS011;10116;53.112;7.356;2022-08-21T00:26:25;1.53;;;1.30;;
19907;SDS011;10116;53.112;7.356;2022-08-21T00:28:51;1.67;;;1.30;;
19907;SDS011;10116;53.112;7.356;2022-08-21T00:31:17;1.30;;;1.20;;
19907;SDS011;10116;53.112;7.356;2022-08-21T00:33:43;2.83;;;1.10;;
19907;SDS011;10116;53.112;7.356;2022-08-21T00:36:10;1.50;;;1.40;;
19907;SDS011;10116;53.112;7.356;2022-08-21T00:38:36;1.13;;;1.03;;
19907;SDS011;10116;53.112;7.356;2022-08-21T00:41:03;1.23;;;1.13;;
19907;SDS011;10116;53.112;7.356;2022-08-21T00:43:32;1.47;;;1.23;;
19907;SDS011;10116;53.112;7.356;2022-08-21T00:45:59;1.10;;;0.93;;
19907;SDS011;10116;53.112;7.356;2022-08-21T00:48:25;2.37;;;1.10;;
19907;SDS011;10116;53.112;7.356;2022-08-21T00:53:43;1.40;;;1.30;;
19907;SDS011;10116;53.112;7.356;2022-08-21T00:56:10;1.30;;;1.20;;
19907;SDS011;10116;53.112;7.356;2022-08-21T00:58:37;3.20;;;1.20;;
19907;SDS011;10116;53.112;7.356;2022-08-21T01:01:07;1.13;;;1.00;;
19907;SDS011;10116;53.112;7.356;2022-08-21T01:03:33;1.00;;;1.00;;
19907;SDS011;10116;53.112;7.356;2022-08-21T01:06:00;1.20;;;1.10;;
19907;SDS011;10116;53.112;7.356;2022-08-21T01:08:27;1.50;;;1.40;;
19907;SDS011;10116;53.112;7.356;2022-08-21T01:10:54;1.43;;;1.00;;
19907;SDS011;10116;53.112;7.356;2022-08-21T01:13:20;0.80;;;0.80;;
19907;SDS011;10116;53.112;7.356;2022-08-21T01:15:49;1.17;;;1.17;;
19907;SDS011;10116;53.112;7.356;2022-08-21T01:18:18;1.07;;;1.07;;
19907;SDS011;10116;53.112;7.356;2022-08-21T01:20:51;2.20;;;1.00;;
19907;SDS011;10116;53.112;7.356;2022-08-21T01:23:34;1.23;;;1.13;;
19907;SDS011;10116;53.112;7.356;2022-08-21T01:26:01;1.23;;;1.13;;
19907;SDS011;10116;53.112;7.356;2022-08-21T01:28:27;0.80;;;0.80;;
19907;SDS011;10116;53.112;7.356;2022-08-21T01:30:56;1.60;;;1.30;;
19907;SDS011;10116;53.112;7.356;2022-08-21T01:33:24;3.03;;;1.10;;
19907;SDS011;10116;53.112;7.356;2022-08-21T01:35:50;2.10;;;1.00;;
19907;SDS011;10116;53.112;7.356;2022-08-21T01:38:16;1.70;;;0.90;;
19907;SDS011;10116;53.112;7.356;2022-08-21T01:40:42;1.47;;;1.20;;
19907;SDS011;10116;53.112;7.356;2022-08-21T01:43:09;1.60;;;0.90;;
19907;SDS011;10116;53.112;7.356;2022-08-21T01:45:34;2.80;;;1.00;;
19907;SDS011;10116;53.112;7.356;2022-08-21T01:48:00;1.10;;;1.00;;
19907;SDS011;10116;53.112;7.356;2022-08-21T01:50:26;1.27;;;1.17;;
19907;SDS011;10116;53.112;7.356;2022-08-21T01:52:51;0.87;;;0.87;;
19907;SDS011;10116;53.112;7.356;2022-08-21T01:55:18;1.00;;;0.80;;
19907;SDS011;10116;53.112;7.356;2022-08-21T01:57:44;0.90;;;0.90;;
19907;SDS011;10116;53.112;7.356;2022-08-21T02:00:11;2.40;;;1.40;;
19907;SDS011;10116;53.112;7.356;2022-08-21T02:02:39;1.83;;;1.40;;
19907;SDS011;10116;53.112;7.356;2022-08-21T02:05:06;0.90;;;0.90;;
19907;SDS011;10116;53.112;7.356;2022-08-21T02:07:43;2.10;;;0.90;;
19907;SDS011;10116;53.112;7.356;2022-08-21T02:10:15;1.43;;;1.33;;
19907;SDS011;10116;53.112;7.356;2022-08-21T02:12:45;1.03;;;1.03;;
19907;SDS011;10116;53.112;7.356;2022-08-21T02:15:10;1.83;;;1.33;;
19907;SDS011;10116;53.112;7.356;2022-08-21T02:17:46;2.43;;;1.20;;
19907;SDS011;10116;53.112;7.356;2022-08-21T02:20:16;1.30;;;1.30;;
19907;SDS011;10116;53.112;7.356;2022-08-21T02:22:51;1.50;;;1.33;;
19907;SDS011;10116;53.112;7.356;2022-08-21T02:25:18;1.20;;;1.10;;
19907;SDS011;10116;53.112;7.356;2022-08-21T02:27:45;1.30;;;1.10;;
19907;SDS011;10116;53.112;7.356;2022-08-21T02:30:20;4.43;;;1.30;;
19907;SDS011;10116;53.112;7.356;2022-08-21T02:32:50;1.50;;;1.30;;
19907;SDS011;10116;53.112;7.356;2022-08-21T02:35:16;3.07;;;1.23;;
19907;SDS011;10116;53.112;7.356;2022-08-21T02:37:44;1.43;;;1.20;;
19907;SDS011;10116;53.112;7.356;2022-08-21T02:40:10;1.40;;;1.30;;
19907;SDS011;10116;53.112;7.356;2022-08-21T02:42:37;1.37;;;1.27;;
19907;SDS011;10116;53.112;7.356;2022-08-21T02:45:03;1.43;;;1.33;;
19907;SDS011;10116;53.112;7.356;2022-08-21T02:47:29;2.40;;;1.37;;
19907;SDS011;10116;53.112;7.356;2022-08-21T02:49:55;1.43;;;1.10;;
19907;SDS011;10116;53.112;7.356;2022-08-21T02:52:21;2.00;;;1.27;;
19907;SDS011;10116;53.112;7.356;2022-08-21T02:54:47;1.83;;;1.20;;
19907;SDS011;10116;53.112;7.356;2022-08-21T02:57:12;0.90;;;0.90;;
19907;SDS011;10116;53.112;7.356;2022-08-21T02:59:38;1.50;;;1.40;;
19907;SDS011;10116;53.112;7.356;2022-08-21T03:02:05;1.37;;;1.30;;
19907;SDS011;10116;53.112;7.356;2022-08-21T03:04:31;2.63;;;1.03;;
19907;SDS011;10116;53.112;7.356;2022-08-21T03:06:57;5.73;;;1.20;;
19907;SDS011;10116;53.112;7.356;2022-08-21T03:09:22;1.70;;;1.30;;
19907;SDS011;10116;53.112;7.356;2022-08-21T03:11:49;3.10;;;1.60;;
19907;SDS011;10116;53.112;7.356;2022-08-21T03:14:16;2.80;;;1.70;;
19907;SDS011;10116;53.112;7.356;2022-08-21T03:16:42;1.43;;;1.33;;
19907;SDS011;10116;53.112;7.356;2022-08-21T03:19:09;1.63;;;1.30;;
19907;SDS011;10116;53.112;7.356;2022-08-21T03:21:34;3.33;;;1.37;;
19907;SDS011;10116;53.112;7.356;2022-08-21T03:24:00;1.27;;;1.17;;
19907;SDS011;10116;53.112;7.356;2022-08-21T03:26:26;1.37;;;1.13;;
19907;SDS011;10116;53.112;7.356;2022-08-21T03:28:51;1.20;;;1.10;;
19907;SDS011;10116;53.112;7.356;2022-08-21T03:31:17;1.50;;;1.23;;
19907;SDS011;10116;53.112;7.356;2022-08-21T03:33:43;3.67;;;1.70;;
19907;SDS011;10116;53.112;7.356;2022-08-21T03:36:09;1.30;;;1.20;;
19907;SDS011;10116;53.112;7.356;2022-08-21T03:38:36;1.77;;;1.30;;
19907;SDS011;10116;53.112;7.356;2022-08-21T03:41:02;1.50;;;1.40;;
19907;SDS011;10116;53.112;7.356;2022-08-21T03:43:29;1.90;;;1.40;;
19907;SDS011;10116;53.112;7.356;2022-08-21T03:45:56;1.60;;;1.50;;
19907;SDS011;10116;53.112;7.356;2022-08-21T03:48:21;3.50;;;1.70;;
19907;SDS011;10116;53.112;7.356;2022-08-21T03:50:47;1.13;;;1.03;;
19907;SDS011;10116;53.112;7.356;2022-08-21T03:53:14;1.10;;;1.10;;
19907;SDS011;10116;53.112;7.356;2022-08-21T03:55:41;2.53;;;1.83;;
19907;SDS011;10116;53.112;7.356;2022-08-21T03:58:07;2.20;;;1.27;;
19907;SDS011;10116;53.112;7.356;2022-08-21T04:00:33;1.50;;;1.40;;
19907;SDS011;10116;53.112;7.356;2022-08-21T04:02:59;3.73;;;1.27;;
19907;SDS011;10116;53.112;7.356;2022-08-21T04:05:25;1.53;;;1.40;;
19907;SDS011;10116;53.112;7.356;2022-08-21T04:07:58;1.83;;;1.37;;
19907;SDS011;10116;53.112;7.356;2022-08-21T04:10:27;1.70;;;1.30;;
19907;SDS011;10116;53.112;7.356;2022-08-21T04:12:53;3.50;;;1.50;;
19907;SDS011;10116;53.112;7.356;2022-08-21T04:15:19;3.73;;;1.70;;
19907;SDS011;10116;53.112;7.356;2022-08-21T04:17:46;1.50;;;1.40;;
19907;SDS011;10116;53.112;7.356;2022-08-21T04:20:13;2.37;;;1.43;;
19907;SDS011;10116;53.112;7.356;2022-08-21T04:22:39;1.20;;;1.20;;
19907;SDS011;10116;53.112;7.356;2022-08-21T04:25:05;1.30;;;1.20;;
19907;SDS011;10116;53.112;7.356;2022-08-21T04:27:32;2.63;;;1.57;;
19907;SDS011;10116;53.112;7.356;2022-08-21T04:29:58;1.77;;;1.50;;
19907;SDS011;10116;53.112;7.356;2022-08-21T04:32:25;2.40;;;1.77;;
19907;SDS011;10116;53.112;7.356;2022-08-21T04:34:57;2.00;;;1.10;;
19907;SDS011;10116;53.112;7.356;2022-08-21T04:37:23;1.93;;;1.27;;
19907;SDS011;10116;53.112;7.356;2022-08-21T04:39:49;1.43;;;1.30;;
19907;SDS011;10116;53.112;7.356;2022-08-21T04:42:15;1.53;;;1.33;;
19907;SDS011;10116;53.112;7.356;2022-08-21T04:44:40;2.50;;;1.60;;
19907;SDS011;10116;53.112;7.356;2022-08-21T04:47:06;2.53;;;1.90;;
19907;SDS011;10116;53.112;7.356;2022-08-21T04:49:32;2.50;;;1.67;;
19907;SDS011;10116;53.112;7.356;2022-08-21T04:51:58;1.93;;;1.40;;
19907;SDS011;10116;53.112;7.356;2022-08-21T04:54:24;1.60;;;1.50;;
19907;SDS011;10116;53.112;7.356;2022-08-21T04:56:58;2.20;;;1.50;;
19907;SDS011;10116;53.112;7.356;2022-08-21T04:59:30;1.40;;;1.30;;
19907;SDS011;10116;53.112;7.356;2022-08-21T05:02:00;3.07;;;1.70;;
19907;SDS011;10116;53.112;7.356;2022-08-21T05:04:28;2.30;;;1.30;;
19907;SDS011;10116;53.112;7.356;2022-08-21T05:06:58;2.23;;;1.43;;
19907;SDS011;10116;53.112;7.356;2022-08-21T05:09:27;1.90;;;1.50;;
19907;SDS011;10116;53.112;7.356;2022-08-21T05:11:53;3.63;;;1.70;;
19907;SDS011;10116;53.112;7.356;2022-08-21T05:14:20;2.40;;;1.50;;
19907;SDS011;10116;53.112;7.356;2022-08-21T05:16:46;2.07;;;1.43;;
19907;SDS011;10116;53.112;7.356;2022-08-21T05:19:12;1.60;;;1.50;;
19907;SDS011;10116;53.112;7.356;2022-08-21T05:21:39;1.97;;;1.70;;
19907;SDS011;10116;53.112;7.356;2022-08-21T05:24:06;1.53;;;1.33;;
19907;SDS011;10116;53.112;7.356;2022-08-21T05:26:32;2.40;;;1.30;;
19907;SDS011;10116;53.112;7.356;2022-08-21T05:28:58;1.97;;;1.57;;
19907;SDS011;10116;53.112;7.356;2022-08-21T05:31:24;1.57;;;1.40;;
19907;SDS011;10116;53.112;7.356;2022-08-21T05:33:50;1.27;;;1.17;;
19907;SDS011;10116;53.112;7.356;2022-08-21T05:36:16;1.67;;;1.50;;
19907;SDS011;10116;53.112;7.356;2022-08-21T05:38:42;1.67;;;1.30;;
19907;SDS011;10116;53.112;7.356;2022-08-21T05:41:08;1.50;;;1.40;;
19907;SDS011;10116;53.112;7.356;2022-08-21T05:43:34;1.10;;;1.10;;
19907;SDS011;10116;53.112;7.356;2022-08-21T05:46:01;1.70;;;1.40;;
19907;SDS011;10116;53.112;7.356;2022-08-21T05:48:27;2.27;;;2.00;;
19907;SDS011;10116;53.112;7.356;2022-08-21T05:50:53;1.80;;;1.70;;
19907;SDS011;10116;53.112;7.356;2022-08-21T05:53:20;1.67;;;1.57;;
19907;SDS011;10116;53.112;7.356;2022-08-21T05:55:46;1.40;;;1.30;;
19907;SDS011;10116;53.112;7.356;2022-08-21T05:58:17;2.00;;;1.37;;
19907;SDS011;10116;53.112;7.356;2022-08-21T06:00:45;3.35;;;1.63;;
19907;SDS011;10116;53.112;7.356;2022-08-21T06:03:16;1.50;;;1.33;;
19907;SDS011;10116;53.112;7.356;2022-08-21T06:05:53;2.55;;;1.42;;
19907;SDS011;10116;53.112;7.356;2022-08-21T06:08:20;1.73;;;1.60;;
19907;SDS011;10116;53.112;7.356;2022-08-21T06:10:49;2.90;;;1.60;;
19907;SDS011;10116;53.112;7.356;2022-08-21T06:13:16;2.90;;;1.70;;
19907;SDS011;10116;53.112;7.356;2022-08-21T06:15:43;2.70;;;1.80;;
19907;SDS011;10116;53.112;7.356;2022-08-21T06:18:09;2.55;;;2.00;;
19907;SDS011;10116;53.112;7.356;2022-08-21T06:20:35;1.70;;;1.60;;
19907;SDS011;10116;53.112;7.356;2022-08-21T06:23:01;1.55;;;1.30;;
19907;SDS011;10116;53.112;7.356;2022-08-21T06:25:27;1.77;;;1.67;;
19907;SDS011;10116;53.112;7.356;2022-08-21T06:27:59;1.65;;;1.55;;
19907;SDS011;10116;53.112;7.356;2022-08-21T06:30:30;1.77;;;1.23;;
19907;SDS011;10116;53.112;7.356;2022-08-21T06:32:56;1.40;;;1.23;;
19907;SDS011;10116;53.112;7.356;2022-08-21T06:35:22;1.57;;;1.43;;
19907;SDS011;10116;53.112;7.356;2022-08-21T06:37:49;3.00;;;1.50;;
19907;SDS011;10116;53.112;7.356;2022-08-21T06:40:15;1.63;;;1.53;;
19907;SDS011;10116;53.112;7.356;2022-08-21T06:42:40;2.47;;;1.77;;
19907;SDS011;10116;53.112;7.356;2022-08-21T06:45:06;3.07;;;2.10;;
19907;SDS011;10116;53.112;7.356;2022-08-21T06:47:32;2.20;;;1.57;;
19907;SDS011;10116;53.112;7.356;2022-08-21T06:49:57;1.93;;;1.50;;
19907;SDS011;10116;53.112;7.356;2022-08-21T06:52:23;2.27;;;1.47;;
19907;SDS011;10116;53.112;7.356;2022-08-21T06:54:48;1.70;;;1.60;;
19907;SDS011;10116;53.112;7.356;2022-08-21T06:57:14;2.97;;;1.70;;
19907;SDS011;10116;53.112;7.356;2022-08-21T06:59:40;2.40;;;1.50;;
19907;SDS011;10116;53.112;7.356;2022-08-21T07:02:06;5.90;;;1.70;;
19907;SDS011;10116;53.112;7.356;2022-08-21T07:04:32;2.17;;;1.80;;
19907;SDS011;10116;53.112;7.356;2022-08-21T07:06:58;4.67;;;1.80;;
19907;SDS011;10116;53.112;7.356;2022-08-21T07:09:24;2.23;;;2.00;;
19907;SDS011;10116;53.112;7.356;2022-08-21T07:11:50;2.70;;;2.07;;
19907;SDS011;10116;53.112;7.356;2022-08-21T07:14:18;3.07;;;1.80;;
19907;SDS011;10116;53.112;7.356;2022-08-21T07:16:44;7.57;;;2.50;;
19907;SDS011;10116;53.112;7.356;2022-08-21T07:19:10;5.03;;;2.10;;
19907;SDS011;10116;53.112;7.356;2022-08-21T07:21:35;7.00;;;2.00;;
19907;SDS011;10116;53.112;7.356;2022-08-21T07:24:01;3.40;;;1.60;;
19907;SDS011;10116;53.112;7.356;2022-08-21T07:26:27;2.50;;;1.80;;
19907;SDS011;10116;53.112;7.356;2022-08-21T07:28:53;3.80;;;1.70;;
19907;SDS011;10116;53.112;7.356;2022-08-21T07:31:19;2.50;;;2.25;;
19907;SDS011;10116;53.112;7.356;2022-08-21T07:33:47;2.47;;;1.90;;
19907;SDS011;10116;53.112;7.356;2022-08-21T07:36:13;5.40;;;1.90;;
19907;SDS011;10116;53.112;7.356;2022-08-21T07:38:39;8.10;;;2.40;;
19907;SDS011;10116;53.112;7.356;2022-08-21T07:41:18;3.53;;;2.00;;
19907;SDS011;10116;53.112;7.356;2022-08-21T07:43:48;3.73;;;2.03;;
19907;SDS011;10116;53.112;7.356;2022-08-21T07:46:14;2.97;;;2.20;;
19907;SDS011;10116;53.112;7.356;2022-08-21T07:48:40;4.07;;;2.03;;
19907;SDS011;10116;53.112;7.356;2022-08-21T07:51:08;5.47;;;2.33;;
19907;SDS011;10116;53.112;7.356;2022-08-21T07:53:36;6.17;;;2.43;;
19907;SDS011;10116;53.112;7.356;2022-08-21T07:56:03;6.83;;;2.30;;
19907;SDS011;10116;53.112;7.356;2022-08-21T07:58:30;3.13;;;2.07;;
19907;SDS011;10116;53.112;7.356;2022-08-21T08:00:57;7.07;;;2.40;;
19907;SDS011;10116;53.112;7.356;2022-08-21T08:03:22;4.97;;;2.17;;
19907;SDS011;10116;53.112;7.356;2022-08-21T08:05:48;4.73;;;2.23;;
19907;SDS011;10116;53.112;7.356;2022-08-21T08:08:14;5.50;;;2.40;;
19907;SDS011;10116;53.112;7.356;2022-08-21T08:10:40;6.10;;;2.60;;
19907;SDS011;10116;53.112;7.356;2022-08-21T08:13:07;5.93;;;1.87;;
19907;SDS011;10116;53.112;7.356;2022-08-21T08:15:32;4.10;;;1.80;;
19907;SDS011;10116;53.112;7.356;2022-08-21T08:17:58;8.67;;;2.27;;
19907;SDS011;10116;53.112;7.356;2022-08-21T08:20:24;4.40;;;2.00;;
19907;SDS011;10116;53.112;7.356;2022-08-21T08:22:51;5.83;;;2.43;;
19907;SDS011;10116;53.112;7.356;2022-08-21T08:25:19;5.93;;;1.90;;
19907;SDS011;10116;53.112;7.356;2022-08-21T08:27:45;3.30;;;1.90;;
19907;SDS011;10116;53.112;7.356;2022-08-21T08:30:12;6.70;;;2.07;;
19907;SDS011;10116;53.112;7.356;2022-08-21T08:32:38;5.43;;;2.10;;
19907;SDS011;10116;53.112;7.356;2022-08-21T08:35:05;4.70;;;2.03;;
19907;SDS011;10116;53.112;7.356;2022-08-21T08:37:32;7.13;;;2.43;;
19907;SDS011;10116;53.112;7.356;2022-08-21T08:39:58;3.20;;;1.73;;
19907;SDS011;10116;53.112;7.356;2022-08-21T08:42:25;4.97;;;1.87;;
19907;SDS011;10116;53.112;7.356;2022-08-21T08:44:58;4.40;;;2.00;;
19907;SDS011;10116;53.112;7.356;2022-08-21T08:47:28;7.87;;;2.40;;
19907;SDS011;10116;53.112;7.356;2022-08-21T08:50:10;7.33;;;2.33;;
19907;SDS011;10116;53.112;7.356;2022-08-21T08:52:43;6.17;;;1.93;;
19907;SDS011;10116;53.112;7.356;2022-08-21T08:57:39;5.37;;;2.27;;
19907;SDS011;10116;53.112;7.356;2022-08-21T09:00:11;4.90;;;1.80;;
19907;SDS011;10116;53.112;7.356;2022-08-21T09:02:39;5.60;;;1.97;;
19907;SDS011;10116;53.112;7.356;2022-08-21T09:05:07;3.13;;;2.10;;
19907;SDS011;10116;53.112;7.356;2022-08-21T09:10:20;5.23;;;2.17;;
19907;SDS011;10116;53.112;7.356;2022-08-21T09:13:08;4.10;;;2.07;;
19907;SDS011;10116;53.112;7.356;2022-08-21T09:16:10;8.50;;;2.53;;
19907;SDS011;10116;53.112;7.356;2022-08-21T09:18:52;5.20;;;2.20;;
19907;SDS011;10116;53.112;7.356;2022-08-21T09:21:35;6.00;;;1.93;;
19907;SDS011;10116;53.112;7.356;2022-08-21T09:24:08;3.87;;;2.10;;
19907;SDS011;10116;53.112;7.356;2022-08-21T09:26:50;8.07;;;1.93;;
19907;SDS011;10116;53.112;7.356;2022-08-21T09:29:25;3.63;;;1.90;;
19907;SDS011;10116;53.112;7.356;2022-08-21T09:31:54;3.93;;;1.80;;
19907;SDS011;10116;53.112;7.356;2022-08-21T09:34:26;5.17;;;1.93;;
19907;SDS011;10116;53.112;7.356;2022-08-21T09:36:54;4.33;;;2.07;;
19907;SDS011;10116;53.112;7.356;2022-08-21T09:39:27;2.80;;;1.70;;
19907;SDS011;10116;53.112;7.356;2022-08-21T09:42:03;4.10;;;1.90;;
19907;SDS011;10116;53.112;7.356;2022-08-21T09:44:31;2.20;;;1.50;;
19907;SDS011;10116;53.112;7.356;2022-08-21T09:47:07;1.70;;;1.40;;
19907;SDS011;10116;53.112;7.356;2022-08-21T09:49:36;2.40;;;2.03;;
19907;SDS011;10116;53.112;7.356;2022-08-21T09:52:17;4.20;;;1.80;;
19907;SDS011;10116;53.112;7.356;2022-08-21T09:54:51;4.93;;;1.70;;
19907;SDS011;10116;53.112;7.356;2022-08-21T09:57:21;4.77;;;1.73;;
19907;SDS011;10116;53.112;7.356;2022-08-21T10:00:15;5.40;;;2.03;;
19907;SDS011;10116;53.112;7.356;2022-08-21T10:02:50;6.20;;;2.40;;
19907;SDS011;10116;53.112;7.356;2022-08-21T10:05:21;4.70;;;2.20;;
19907;SDS011;10116;53.112;7.356;2022-08-21T10:07:50;5.37;;;2.17;;
19907;SDS011;10116;53.112;7.356;2022-08-21T10:10:24;2.40;;;1.50;;
19907;SDS011;10116;53.112;7.356;2022-08-21T10:39:45;2.70;;;1.83;;
19907;SDS011;10116;53.112;7.356;2022-08-21T10:45:22;5.70;;;1.90;;
19907;SDS011;10116;53.112;7.356;2022-08-21T10:48:13;8.83;;;1.67;;
19907;SDS011;10116;53.112;7.356;2022-08-21T10:50:51;2.97;;;1.80;;
19907;SDS011;10116;53.112;7.356;2022-08-21T10:56:22;4.17;;;1.57;;
19907;SDS011;10116;53.112;7.356;2022-08-21T11:01:48;3.90;;;2.20;;
19907;SDS011;10116;53.112;7.356;2022-08-21T11:04:20;4.30;;;1.53;;
19907;SDS011;10116;53.112;7.356;2022-08-21T11:06:53;2.80;;;1.70;;
19907;SDS011;10116;53.112;7.356;2022-08-21T11:09:47;2.80;;;1.40;;
19907;SDS011;10116;53.112;7.356;2022-08-21T11:12:20;1.37;;;1.27;;
19907;SDS011;10116;53.112;7.356;2022-08-21T11:14:59;3.27;;;1.60;;
19907;SDS011;10116;53.112;7.356;2022-08-21T11:17:32;3.37;;;1.67;;
19907;SDS011;10116;53.112;7.356;2022-08-21T11:20:11;1.40;;;1.30;;
19907;SDS011;10116;53.112;7.356;2022-08-21T11:33:43;2.30;;;1.50;;
19907;SDS011;10116;53.112;7.356;2022-08-21T11:42:13;2.10;;;1.40;;
19907;SDS011;10116;53.112;7.356;2022-08-21T11:44:48;2.00;;;1.50;;
19907;SDS011;10116;53.112;7.356;2022-08-21T11:50:28;2.35;;;1.70;;
19907;SDS011;10116;53.112;7.356;2022-08-21T11:53:00;4.50;;;1.60;;
19907;SDS011;10116;53.112;7.356;2022-08-21T11:58:26;2.40;;;1.60;;
19907;SDS011;10116;53.112;7.356;2022-08-21T12:01:10;2.03;;;1.45;;
19907;SDS011;10116;53.112;7.356;2022-08-21T12:03:41;1.73;;;1.63;;
19907;SDS011;10116;53.112;7.356;2022-08-21T12:06:26;2.30;;;1.83;;
19907;SDS011;10116;53.112;7.356;2022-08-21T12:08:58;3.80;;;1.60;;
19907;SDS011;10116;53.112;7.356;2022-08-21T12:11:26;2.50;;;1.30;;
19907;SDS011;10116;53.112;7.356;2022-08-21T12:19:10;1.97;;;1.40;;
19907;SDS011;10116;53.112;7.356;2022-08-21T12:24:30;2.10;;;1.47;;
19907;SDS011;10116;53.112;7.356;2022-08-21T12:27:22;2.00;;;1.17;;
19907;SDS011;10116;53.112;7.356;2022-08-21T12:30:02;3.20;;;1.60;;
19907;SDS011;10116;53.112;7.356;2022-08-21T12:35:14;2.70;;;1.43;;
19907;SDS011;10116;53.112;7.356;2022-08-21T12:37:43;1.77;;;1.40;;
19907;SDS011;10116;53.112;7.356;2022-08-21T12:40:22;2.17;;;1.50;;
19907;SDS011;10116;53.112;7.356;2022-08-21T12:42:53;1.77;;;1.67;;
19907;SDS011;10116;53.112;7.356;2022-08-21T12:45:26;2.60;;;1.60;;
19907;SDS011;10116;53.112;7.356;2022-08-21T12:48:05;1.90;;;1.30;;
19907;SDS011;10116;53.112;7.356;2022-08-21T12:50:45;1.23;;;1.10;;
19907;SDS011;10116;53.112;7.356;2022-08-21T12:55:51;1.50;;;1.10;;
19907;SDS011;10116;53.112;7.356;2022-08-21T12:58:21;1.35;;;1.25;;
19907;SDS011;10116;53.112;7.356;2022-08-21T13:01:16;1.40;;;1.30;;
19907;SDS011;10116;53.112;7.356;2022-08-21T13:03:49;2.20;;;1.50;;
19907;SDS011;10116;53.112;7.356;2022-08-21T13:06:19;1.53;;;1.43;;
19907;SDS011;10116;53.112;7.356;2022-08-21T13:08:46;2.20;;;1.60;;
19907;SDS011;10116;53.112;7.356;2022-08-21T13:11:14;1.93;;;1.10;;
19907;SDS011;10116;53.112;7.356;2022-08-21T13:13:42;1.27;;;1.00;;
19907;SDS011;10116;53.112;7.356;2022-08-21T13:16:08;3.50;;;1.70;;
19907;SDS011;10116;53.112;7.356;2022-08-21T13:18:39;1.63;;;1.23;;
19907;SDS011;10116;53.112;7.356;2022-08-21T13:21:35;2.03;;;0.80;;
19907;SDS011;10116;53.112;7.356;2022-08-21T13:24:09;1.63;;;1.37;;
19907;SDS011;10116;53.112;7.356;2022-08-21T13:26:40;1.33;;;1.20;;
19907;SDS011;10116;53.112;7.356;2022-08-21T13:29:10;1.80;;;1.47;;
19907;SDS011;10116;53.112;7.356;2022-08-21T13:31:37;1.90;;;1.00;;
19907;SDS011;10116;53.112;7.356;2022-08-21T13:34:05;1.40;;;1.07;;
19907;SDS011;10116;53.112;7.356;2022-08-21T13:36:35;1.73;;;1.03;;
19907;SDS011;10116;53.112;7.356;2022-08-21T13:39:05;1.20;;;1.10;;
19907;SDS011;10116;53.112;7.356;2022-08-21T13:41:34;2.00;;;1.42;;
19907;SDS011;10116;53.112;7.356;2022-08-21T13:46:33;2.70;;;1.07;;
19907;SDS011;10116;53.112;7.356;2022-08-21T13:49:00;1.80;;;1.40;;
19907;SDS011;10116;53.112;7.356;2022-08-21T13:51:29;2.70;;;1.50;;
19907;SDS011;10116;53.112;7.356;2022-08-21T13:53:56;1.90;;;1.37;;
19907;SDS011;10116;53.112;7.356;2022-08-21T13:58:54;1.70;;;1.20;;
19907;SDS011;10116;53.112;7.356;2022-08-21T14:03:56;1.83;;;1.27;;
19907;SDS011;10116;53.112;7.356;2022-08-21T14:06:27;1.52;;;1.10;;
19907;SDS011;10116;53.112;7.356;2022-08-21T14:08:59;3.33;;;1.43;;
19907;SDS011;10116;53.112;7.356;2022-08-21T14:11:33;2.03;;;1.40;;
19907;SDS011;10116;53.112;7.356;2022-08-21T14:14:02;1.43;;;1.33;;
19907;SDS011;10116;53.112;7.356;2022-08-21T14:16:55;2.27;;;1.30;;
19907;SDS011;10116;53.112;7.356;2022-08-21T14:19:34;2.37;;;1.23;;
19907;SDS011;10116;53.112;7.356;2022-08-21T14:25:04;1.13;;;1.03;;
19907;SDS011;10116;53.112;7.356;2022-08-21T14:27:36;1.83;;;1.13;;
19907;SDS011;10116;53.112;7.356;2022-08-21T14:30:12;1.77;;;1.10;;
19907;SDS011;10116;53.112;7.356;2022-08-21T14:32:44;1.43;;;1.33;;
19907;SDS011;10116;53.112;7.356;2022-08-21T14:35:10;1.23;;;1.13;;
19907;SDS011;10116;53.112;7.356;2022-08-21T14:37:36;2.10;;;1.47;;
19907;SDS011;10116;53.112;7.356;2022-08-21T14:40:02;1.47;;;1.37;;
19907;SDS011;10116;53.112;7.356;2022-08-21T14:42:29;3.78;;;1.67;;
19907;SDS011;10116;53.112;7.356;2022-08-21T14:44:56;1.90;;;1.10;;
19907;SDS011;10116;53.112;7.356;2022-08-21T14:47:24;1.00;;;0.90;;
19907;SDS011;10116;53.112;7.356;2022-08-21T14:49:50;1.80;;;1.33;;
19907;SDS011;10116;53.112;7.356;2022-08-21T14:52:18;1.33;;;1.10;;
19907;SDS011;10116;53.112;7.356;2022-08-21T14:54:44;4.07;;;1.17;;
19907;SDS011;10116;53.112;7.356;2022-08-21T14:57:10;1.70;;;1.50;;
19907;SDS011;10116;53.112;7.356;2022-08-21T14:59:37;4.67;;;2.00;;
19907;SDS011;10116;53.112;7.356;2022-08-21T15:02:04;2.10;;;1.30;;
19907;SDS011;10116;53.112;7.356;2022-08-21T15:04:30;6.30;;;1.40;;
19907;SDS011;10116;53.112;7.356;2022-08-21T15:06:56;1.60;;;1.23;;
19907;SDS011;10116;53.112;7.356;2022-08-21T15:09:22;2.90;;;1.30;;
19907;SDS011;10116;53.112;7.356;2022-08-21T15:11:48;3.70;;;1.50;;
19907;SDS011;10116;53.112;7.356;2022-08-21T15:14:23;1.40;;;1.27;;
19907;SDS011;10116;53.112;7.356;2022-08-21T15:16:51;1.83;;;1.57;;
19907;SDS011;10116;53.112;7.356;2022-08-21T15:19:17;1.93;;;1.10;;
19907;SDS011;10116;53.112;7.356;2022-08-21T15:21:43;1.33;;;1.17;;
19907;SDS011;10116;53.112;7.356;2022-08-21T15:24:09;1.40;;;1.20;;
19907;SDS011;10116;53.112;7.356;2022-08-21T15:26:34;1.15;;;1.15;;
19907;SDS011;10116;53.112;7.356;2022-08-21T15:29:00;3.47;;;1.60;;
19907;SDS011;10116;53.112;7.356;2022-08-21T15:31:27;3.00;;;1.52;;
19907;SDS011;10116;53.112;7.356;2022-08-21T15:33:53;1.77;;;1.30;;
19907;SDS011;10116;53.112;7.356;2022-08-21T15:36:20;1.37;;;1.13;;
19907;SDS011;10116;53.112;7.356;2022-08-21T15:38:45;3.37;;;1.10;;
19907;SDS011;10116;53.112;7.356;2022-08-21T15:41:11;1.92;;;1.10;;
19907;SDS011;10116;53.112;7.356;2022-08-21T15:43:42;1.77;;;1.13;;
19907;SDS011;10116;53.112;7.356;2022-08-21T15:46:14;1.00;;;1.00;;
19907;SDS011;10116;53.112;7.356;2022-08-21T15:48:41;2.65;;;1.13;;
19907;SDS011;10116;53.112;7.356;2022-08-21T15:51:08;3.63;;;1.58;;
19907;SDS011;10116;53.112;7.356;2022-08-21T15:53:35;2.53;;;1.30;;
19907;SDS011;10116;53.112;7.356;2022-08-21T15:56:03;2.27;;;1.47;;
19907;SDS011;10116;53.112;7.356;2022-08-21T15:58:30;2.30;;;1.20;;
19907;SDS011;10116;53.112;7.356;2022-08-21T16:00:58;1.90;;;1.60;;
19907;SDS011;10116;53.112;7.356;2022-08-21T16:03:25;1.33;;;1.20;;
19907;SDS011;10116;53.112;7.356;2022-08-21T16:05:51;1.40;;;1.20;;
19907;SDS011;10116;53.112;7.356;2022-08-21T16:08:18;2.20;;;1.20;;
19907;SDS011;10116;53.112;7.356;2022-08-21T16:10:47;1.83;;;1.20;;
19907;SDS011;10116;53.112;7.356;2022-08-21T16:13:23;1.20;;;1.10;;
19907;SDS011;10116;53.112;7.356;2022-08-21T16:15:52;3.63;;;1.75;;
19907;SDS011;10116;53.112;7.356;2022-08-21T16:18:18;2.43;;;1.40;;
19907;SDS011;10116;53.112;7.356;2022-08-21T16:20:44;3.33;;;1.70;;
19907;SDS011;10116;53.112;7.356;2022-08-21T16:23:10;14.70;;;6.87;;
19907;SDS011;10116;53.112;7.356;2022-08-21T16:25:36;10.10;;;5.47;;
19907;SDS011;10116;53.112;7.356;2022-08-21T16:28:05;14.90;;;6.23;;
19907;SDS011;10116;53.112;7.356;2022-08-21T16:30:32;8.85;;;5.65;;